Air Sicilia Virtual Airways - Route

Air Sicilia Virtual Airways - SIC307L

( IE ) EIDL
Donegal Airport
DONEGAL ( CFN )
plane_to ( GB ) EGPC
Wick Airport
WICK ( WIC )
Business Exec World Tour 2018 - LEG: 31

AIRPORT NEAR NAVIGATION AIDS

Type Name Frequency
NDB Donegal 361 KHZ

METAR / TAF
EIDL 211200Z 33007KT 9999 SCT044 12/07 Q1021

RUNWAY INFORMATION

Runway Runway length Runway width Runway elevation Runway displaced threshold Runway heading
03 4908 98 10 656 20.2
21 4908 98 30 656 200.2

AIRPORT FREQUENCIES

Type Name Frequency
ATIS ATIS 129.925 MHZ
GND GND 129.8 MHZ
TWR TWR 129.8 MHZ

AIRPORT NEAR NAVIGATION AIDS

Type Name Frequency
NDB Wick 344 KHZ
VOR-DME Wick 113600 KHZ

METAR / TAF
EGPC 211220Z 30020KT 9999 BKN015 11/09 Q1017

RUNWAY INFORMATION

Runway Runway length Runway width Runway elevation Runway displaced threshold Runway heading
08 3399 148 99 0 75.5
26 3399 148 114 0 255.5
13 5988 148 114 820 127
31 5988 148 114 1017 307

AIRPORT FREQUENCIES

Type Name Frequency
AFIS INFO 119.7 MHZ
APP APP 119.7 MHZ
ATIS ATIS 113.6 MHZ
TWR TWR 119.7 MHZ

Flightplan

MAC FYNER LAGAV VADNO LSM ABUVO

Air Sicilia Virtual Airways Fleets

AVAILABLE AIRCRAFTS for route at this time in Donegal Airport
C550 - Cessna 550 Citation II
( US ) Cessna

Aircraft in fleet: 1

CL30 - BD-100 Challenger 300
( CA ) Bombardier

Aircraft in fleet: 1

LJ35 - Bombardier Learjet 35A
( CA ) Bombardier

Aircraft in fleet: 1

270 NM

Distance in nautical miles.

€ 120,00

Ticket price for this flight.

Nr. 31

Leg



12-11-2018
Aerosoft Airport Rio de Janeiro International V2.0 XP

L'Aeroporto Internazionale di Rio de Janeiro-Galeão (IATA: GIG, ICAO: SBGL), costruito nel 1952 nel quartiere di Ilha do Governador ed intitolato al musicista Antônio Carlos Jobim, è il principale aeroporto internazio ....


15-10-2018
Aerosoft A320 Family professional

La gamma di aeromobili A320 è una delle più comuni nei cieli. Questi aerei di linea a doppio-getto a corto e medio raggio si sono dimostrati convenienti, affidabili e prontamente disponibili, rendendoli le opzioni migl ....


10-10-2018
Motore critico ( Critical Engine )

Il motore critico di un velivolo ad ala fissa multi-motore è il motore che, in caso di guasto, influirebbe negativamente sulle prestazioni o sulla capacità di manovra di un aereo. Sui velivoli ad elica, vi è un ....


04-10-2018
Aerosoft Dortmund XP

Scopri il centro della regione della Ruhr su XPlane 11 - lo scenario Dortmund XP è una ricostruzione completa della città di Dortmund per il simulatore di volo targato Laminar. Oltre all'intera area urbana di Dortmu ....


07-08-2018
Aerosoft Professional Flight Planner PFPX

PFPX - Professional Flight Planner X - è un nuovo ed innovativo strumento di pianificazione del volo sviluppato da piloti e dispatcher del mondo reale. È un'aggiunta preziosa e realistica alla tua esperienza di simulaz ....